YGK weather

Kingston Norman Rogers Airport
Kingston, Ontario, Canada

Public forecast

Using degrees Celsius for public forecast. Weather courtesy of forecast.io.

Current aviation weather report (METAR) for Kingston Norman Rogers Airport

Retrieved 2019/11/20 18:00 UTC (28 minutes ago):

CYGK 201800Z 33006KT 310V030 15SM FEW025 BKN091 BKN240 04/M02 A3007 RMK SC2AC3CI1 SLP189

Aviation forecast (TAF) for Kingston Norman Rogers Airport

Retrieved 2019/11/20 20:00 UTC (0 seconds ago):

TAF CYGK 201938Z 2020/2104 32006KT P6SM SCT020 BKN090 TEMPO 2020/2104 BKN020 RMK NXT FCST BY 210200Z